createdAt,value
2019-03-27T00:01:15.042Z,40.40
2019-03-27T00:06:21.368Z,29.73
2019-03-27T00:11:27.639Z,22.07
2019-03-27T00:16:33.698Z,18.77
2019-03-27T00:21:39.656Z,28.60
2019-03-27T00:26:45.714Z,25.57
2019-03-27T00:31:51.819Z,28.50
2019-03-27T00:36:58.025Z,25.83
2019-03-27T00:42:04.217Z,25.07
2019-03-27T00:47:10.251Z,24.60
2019-03-27T00:52:17.671Z,26.90
2019-03-27T00:57:23.692Z,32.37
2019-03-27T01:02:29.716Z,21.63
2019-03-27T01:07:35.803Z,28.33
2019-03-27T01:12:41.816Z,34.57
2019-03-27T01:17:47.886Z,28.90
2019-03-27T01:22:54.015Z,23.03
2019-03-27T01:28:00.032Z,32.40
2019-03-27T01:33:05.803Z,20.83
2019-03-27T01:38:11.846Z,21.80
2019-03-27T01:43:17.809Z,19.57
2019-03-27T01:48:23.775Z,15.10
2019-03-27T01:53:29.984Z,22.77
2019-03-27T01:58:35.945Z,23.13
2019-03-27T02:03:42.020Z,19.93
2019-03-27T02:08:48.228Z,21.87
2019-03-27T02:13:54.402Z,22.87
2019-03-27T02:19:00.583Z,26.77
2019-03-27T02:24:06.637Z,24.23
2019-03-27T02:29:12.759Z,28.17
2019-03-27T02:34:18.773Z,22.63
2019-03-27T02:39:24.780Z,29.03
2019-03-27T02:44:30.858Z,27.43
2019-03-27T02:49:36.936Z,22.40
2019-03-27T02:54:44.333Z,18.60
2019-03-27T02:59:50.308Z,18.37
2019-03-27T03:04:56.487Z,18.63
2019-03-27T03:10:02.532Z,24.43
2019-03-27T03:15:09.416Z,22.70
2019-03-27T03:20:15.505Z,14.93
2019-03-27T03:25:21.487Z,20.93
2019-03-27T03:30:27.511Z,21.53
2019-03-27T03:35:33.585Z,18.03
2019-03-27T03:40:39.656Z,18.60
2019-03-27T03:45:45.601Z,15.73
2019-03-27T03:50:52.959Z,23.60
2019-03-27T03:56:01.074Z,18.60
2019-03-27T04:01:07.967Z,16.67
2019-03-27T04:06:14.030Z,17.87
2019-03-27T04:11:20.079Z,17.73
2019-03-27T04:16:26.070Z,18.83
2019-03-27T04:21:32.114Z,18.90
2019-03-27T04:26:38.012Z,16.73
2019-03-27T04:31:43.809Z,19.13
2019-03-27T04:36:49.775Z,15.70
2019-03-27T04:41:55.879Z,15.93
2019-03-27T04:47:01.955Z,21.60
2019-03-27T04:52:07.954Z,16.57
2019-03-27T04:57:13.974Z,19.13
2019-03-27T05:02:20.152Z,17.70
2019-03-27T05:07:26.003Z,16.03
2019-03-27T05:12:32.080Z,17.10
2019-03-27T05:17:45.776Z,12.93
2019-03-27T05:22:45.838Z,13.27
2019-03-27T05:27:51.677Z,14.83
2019-03-27T05:32:57.765Z,17.27
2019-03-27T05:38:03.918Z,17.53
2019-03-27T05:43:10.015Z,18.90
2019-03-27T05:48:16.150Z,12.87
2019-03-27T05:53:22.083Z,19.87
2019-03-27T05:58:28.219Z,14.47
2019-03-27T06:03:34.380Z,18.90
2019-03-27T06:08:40.457Z,11.97
2019-03-27T06:13:46.676Z,11.57
2019-03-27T06:18:52.563Z,15.10
2019-03-27T06:23:58.771Z,12.37
2019-03-27T06:29:04.858Z,14.77
2019-03-27T06:34:10.723Z,15.53
2019-03-27T06:39:16.956Z,19.17
2019-03-27T06:44:22.996Z,15.23
2019-03-27T06:49:29.106Z,24.73
2019-03-27T06:54:35.176Z,19.37
2019-03-27T06:59:41.190Z,15.87
2019-03-27T07:04:47.110Z,15.30
2019-03-27T07:09:53.103Z,20.67
2019-03-27T07:14:59.179Z,18.63
2019-03-27T07:20:05.808Z,16.50
2019-03-27T07:25:12.176Z,19.70
2019-03-27T07:30:18.317Z,17.67
2019-03-27T07:35:24.274Z,17.30
2019-03-27T07:40:30.237Z,21.60
2019-03-27T07:45:36.499Z,12.90
2019-03-27T07:50:42.541Z,18.70
2019-03-27T07:55:48.695Z,21.63
2019-03-27T08:00:55.027Z,18.70
2019-03-27T08:06:00.956Z,21.00
2019-03-27T08:11:07.130Z,21.87
2019-03-27T08:16:13.271Z,18.93
2019-03-27T08:21:19.321Z,18.73
2019-03-27T08:26:25.397Z,19.20
2019-03-27T08:31:31.446Z,18.53
2019-03-27T08:36:37.503Z,23.63
2019-03-27T08:41:43.594Z,24.70
2019-03-27T08:46:49.647Z,22.83
2019-03-27T08:51:55.833Z,22.17
2019-03-27T08:57:02.035Z,21.97
2019-03-27T09:02:08.098Z,29.00
2019-03-27T09:07:14.339Z,18.37
2019-03-27T09:12:20.566Z,22.17
2019-03-27T09:17:26.741Z,20.27
2019-03-27T09:22:32.684Z,23.90
2019-03-27T09:27:38.722Z,25.47
2019-03-27T09:32:44.878Z,24.40
2019-03-27T09:37:51.993Z,25.27
2019-03-27T09:42:58.087Z,24.50
2019-03-27T09:48:24.179Z,22.63
2019-03-27T09:53:30.147Z,23.60
2019-03-27T09:58:36.224Z,23.50
2019-03-27T10:03:42.137Z,18.87
2019-03-27T10:08:48.199Z,19.90
2019-03-27T10:13:54.502Z,18.70
2019-03-27T10:19:00.372Z,15.33
2019-03-27T10:24:06.264Z,17.07
2019-03-27T10:29:12.077Z,17.50
2019-03-27T10:34:18.170Z,15.77
2019-03-27T10:39:24.120Z,18.50
2019-03-27T10:44:30.342Z,18.50
2019-03-27T10:49:36.420Z,12.50
2019-03-27T10:54:43.588Z,15.93
2019-03-27T10:59:49.642Z,15.73
2019-03-27T11:04:55.757Z,14.53
2019-03-27T11:10:02.057Z,13.60
2019-03-27T11:15:09.515Z,9.43
2019-03-27T11:20:30.011Z,8.93
2019-03-27T11:25:24.660Z,10.37
2019-03-27T11:30:42.159Z,12.30
2019-03-27T11:35:51.530Z,13.07
2019-03-27T11:40:55.800Z,11.50
2019-03-27T11:46:04.523Z,10.47
2019-03-27T11:51:10.437Z,10.50
2019-03-27T11:56:16.609Z,7.77
2019-03-27T12:01:22.670Z,8.27
2019-03-27T12:06:28.805Z,7.13
2019-03-27T12:11:34.759Z,8.93
2019-03-27T12:16:40.978Z,4.97
2019-03-27T12:21:48.098Z,7.93
2019-03-27T12:26:54.262Z,7.30
2019-03-27T12:32:00.253Z,9.50
2019-03-27T12:37:06.496Z,6.33
2019-03-27T12:42:12.589Z,7.03
2019-03-27T12:47:18.851Z,14.60
2019-03-27T12:52:25.347Z,6.13
2019-03-27T12:57:51.280Z,4.20
2019-03-27T13:02:57.740Z,5.27
2019-03-27T13:08:24.090Z,5.63
2019-03-27T13:13:30.330Z,6.53
2019-03-27T13:18:36.433Z,7.40
2019-03-27T13:23:42.393Z,7.10
2019-03-27T13:28:49.360Z,5.80
2019-03-27T13:33:55.503Z,10.33
2019-03-27T13:39:01.630Z,7.63
2019-03-27T13:44:07.807Z,13.33
2019-03-27T13:49:14.042Z,7.00
2019-03-27T13:54:20.417Z,7.43
2019-03-27T13:59:26.644Z,8.50
2019-03-27T14:04:32.903Z,7.70
2019-03-27T14:09:38.871Z,8.03
2019-03-27T14:14:50.478Z,10.73
2019-03-27T14:19:52.834Z,10.67
2019-03-27T14:24:58.970Z,10.67
2019-03-27T14:30:05.397Z,8.13
2019-03-27T14:35:11.740Z,6.43
2019-03-27T14:40:17.861Z,9.00
2019-03-27T14:45:23.913Z,8.53
2019-03-27T14:50:29.909Z,9.07
2019-03-27T14:55:36.052Z,9.00
2019-03-27T15:00:41.997Z,15.27
2019-03-27T15:05:47.955Z,11.40
2019-03-27T15:10:54.318Z,9.37
2019-03-27T15:16:00.369Z,8.60
2019-03-27T15:21:06.608Z,10.80
2019-03-27T15:26:12.923Z,10.83
2019-03-27T15:31:20.751Z,6.47
2019-03-27T15:36:26.622Z,12.23
2019-03-27T15:41:32.787Z,8.13
2019-03-27T15:46:39.144Z,11.23
2019-03-27T15:51:45.277Z,12.10
2019-03-27T15:56:51.335Z,8.70
2019-03-27T16:01:57.995Z,13.00
2019-03-27T16:07:04.538Z,11.13
2019-03-27T16:12:10.547Z,9.30
2019-03-27T16:17:16.810Z,14.90
2019-03-27T16:22:22.842Z,11.20
2019-03-27T16:27:28.827Z,11.63
2019-03-27T16:32:34.885Z,10.03
2019-03-27T16:37:41.042Z,18.03
2019-03-27T16:42:46.983Z,7.17
2019-03-27T16:47:53.271Z,13.30
2019-03-27T16:53:03.846Z,8.77
2019-03-27T16:58:08.276Z,9.43
2019-03-27T17:03:14.446Z,10.63
2019-03-27T17:08:20.563Z,11.70
2019-03-27T17:13:26.829Z,9.27
2019-03-27T17:18:32.828Z,12.63
2019-03-27T17:23:41.667Z,12.03
2019-03-27T17:28:47.791Z,15.20
2019-03-27T17:33:53.975Z,13.00
2019-03-27T17:39:00.135Z,10.67
2019-03-27T17:44:06.751Z,15.00
2019-03-27T17:49:12.900Z,11.43
2019-03-27T17:54:20.704Z,11.77
2019-03-27T17:59:26.726Z,7.87
2019-03-27T18:04:33.222Z,10.63
2019-03-27T18:09:39.510Z,5.83
2019-03-27T18:14:45.573Z,8.33
2019-03-27T18:19:51.808Z,8.10
2019-03-27T18:24:58.011Z,7.33
2019-03-27T18:30:04.405Z,7.17
2019-03-27T18:35:29.641Z,7.27
2019-03-27T18:40:54.519Z,9.47
2019-03-27T18:46:19.113Z,8.37
2019-03-27T18:51:43.697Z,7.70
2019-03-27T18:57:08.431Z,10.97
2019-03-27T19:02:33.512Z,13.43
2019-03-27T19:07:58.513Z,9.67
2019-03-27T19:13:23.889Z,8.20
2019-03-27T19:18:48.857Z,9.87
2019-03-27T19:24:16.707Z,12.10
2019-03-27T19:29:40.337Z,11.53
2019-03-27T19:35:05.467Z,10.25
2019-03-27T19:40:30.072Z,16.03
2019-03-27T19:45:57.339Z,17.15
2019-03-27T19:51:21.421Z,11.38
2019-03-27T19:56:46.377Z,14.93
2019-03-27T20:02:11.980Z,14.43
2019-03-27T20:07:37.086Z,16.07
2019-03-27T20:13:02.144Z,15.67
2019-03-27T20:18:27.692Z,12.40
2019-03-27T20:23:52.808Z,16.77
2019-03-27T20:29:17.731Z,13.80
2019-03-27T20:34:42.448Z,20.27
2019-03-27T20:40:07.985Z,15.47
2019-03-27T20:45:32.800Z,16.40
2019-03-27T20:50:57.576Z,18.30
2019-03-27T20:56:22.218Z,14.63
2019-03-27T21:01:47.223Z,19.67
2019-03-27T21:07:12.466Z,26.83
2019-03-27T21:12:37.689Z,27.80
2019-03-27T21:18:02.385Z,47.37
2019-03-27T21:23:27.598Z,28.17
2019-03-27T21:28:52.879Z,29.50
2019-03-27T21:34:18.102Z,31.00
2019-03-27T21:39:43.412Z,25.87
2019-03-27T21:45:09.322Z,26.03
2019-03-27T21:50:34.057Z,25.87
2019-03-27T21:55:58.561Z,31.97
2019-03-27T22:01:23.045Z,38.70
2019-03-27T22:06:48.024Z,40.27
2019-03-27T22:12:13.212Z,43.57
2019-03-27T22:17:38.150Z,34.43
2019-03-27T22:23:03.143Z,28.83
2019-03-27T22:28:28.703Z,24.63
2019-03-27T22:33:54.365Z,24.80
2019-03-27T22:39:19.480Z,24.80
2019-03-27T22:44:44.761Z,27.33
2019-03-27T22:50:10.043Z,26.27
2019-03-27T22:55:48.613Z,27.20
2019-03-27T23:01:01.765Z,24.47
2019-03-27T23:06:27.371Z,26.97
2019-03-27T23:11:52.255Z,28.53
2019-03-27T23:17:16.956Z,25.50
2019-03-27T23:22:41.975Z,27.20
2019-03-27T23:28:06.760Z,22.10
2019-03-27T23:33:32.131Z,23.63
2019-03-27T23:38:57.048Z,29.53
2019-03-27T23:44:22.583Z,21.07
2019-03-27T23:49:47.488Z,23.90
2019-03-27T23:55:12.185Z,32.77
